Time;durP1;ratioP1;P1;durP2;ratioP2;P2;SDS_P1;SDS_P2;PMS_P1;PMS_P2;Temp;Humidity;BMP_temperature;BMP_pressure;BME280_temperature;BME280_humidity;BME280_pressure;Samples;Min_cycle;Max_cycle;Signal;HPM_P1;HPM_P2
2022/01/25 00:08:24;;;;;;;36.05;4.85;;;-0.30;99.90;;;;;;5122638;28;20487;-58
2022/01/25 00:09:59;;;;;;;173.77;8.98;;;-0.20;99.90;;;;;;5119831;27;20070;-59
2022/01/25 00:15:12;;;;;;;170.13;7.63;;;-0.20;99.90;;;;;;5115923;28;20043;-60
2022/01/25 00:31:12;;;;;;;141.80;6.57;;;-0.40;99.90;;;;;;5104498;28;20092;-59
2022/01/25 00:33:44;;;;;;;97.85;6.25;;;-0.40;99.90;;;;;;5107770;28;20061;-59
2022/01/25 00:36:13;;;;;;;80.88;5.22;;;-0.40;99.90;;;;;;5109367;28;20504;-58
2022/01/25 00:38:40;;;;;;;138.43;7.05;;;-0.40;99.90;;;;;;5104740;28;20039;-57
2022/01/25 00:41:06;;;;;;;90.13;8.23;;;-0.30;99.90;;;;;;5096572;28;20492;-60
2022/01/25 00:43:32;;;;;;;77.93;6.85;;;-0.30;99.90;;;;;;5105672;28;20023;-61
2022/01/25 00:46:02;;;;;;;55.30;5.47;;;-0.30;99.90;;;;;;5108109;28;20081;-60
2022/01/25 00:48:41;;;;;;;105.18;6.72;;;-0.30;99.90;;;;;;5106839;28;20414;-60
2022/01/25 00:54:00;;;;;;;144.07;8.07;;;-0.30;99.90;;;;;;5102355;28;20040;-60
2022/01/25 00:56:30;;;;;;;154.32;8.75;;;-0.30;99.90;;;;;;5099009;28;20401;-59
2022/01/25 00:58:56;;;;;;;167.27;8.05;;;-0.40;99.90;;;;;;5105937;28;20119;-60
2022/01/25 01:01:22;;;;;;;138.07;8.27;;;-0.40;99.90;;;;;;5107717;28;20172;-60
2022/01/25 01:03:48;;;;;;;121.10;7.32;;;-0.50;99.90;;;;;;5107759;28;20036;-61
2022/01/25 01:06:15;;;;;;;140.82;8.13;;;-0.50;99.90;;;;;;5108646;28;20040;-57
2022/01/25 01:08:41;;;;;;;143.50;8.18;;;-0.50;99.90;;;;;;5103913;27;20092;-59
2022/01/25 01:11:12;;;;;;;55.75;5.20;;;-0.60;99.90;;;;;;5093008;28;20032;-60
2022/01/25 01:16:49;;;;;;;76.18;5.07;;;-0.70;99.90;;;;;;5103172;28;20068;-61
2022/01/25 01:30:13;;;;;;;10.07;3.90;;;-0.40;99.90;;;;;;5095051;28;20498;-59
2022/01/25 01:46:28;;;;;;;35.00;4.90;;;-0.10;99.90;;;;;;5106624;28;20442;-55
2022/01/25 01:48:36;;;;;;;21.27;4.30;;;-0.10;99.90;;;;;;5105636;28;20105;-60
2022/01/25 01:51:15;;;;;;;22.33;4.45;;;-0.10;99.90;;;;;;5107677;28;21360;-59
2022/01/25 01:53:42;;;;;;;15.68;4.05;;;-0.10;99.90;;;;;;5108501;28;20070;-60
2022/01/25 01:56:08;;;;;;;14.60;3.70;;;-0.20;99.90;;;;;;5107035;28;20038;-59
2022/01/25 01:58:38;;;;;;;22.02;3.90;;;-0.10;99.90;;;;;;5106673;28;20078;-60
2022/01/25 02:01:08;;;;;;;44.88;4.72;;;-0.10;99.90;;;;;;5105535;28;20036;-59
2022/01/25 02:03:33;;;;;;;73.03;5.55;;;-0.10;99.90;;;;;;5107050;28;20063;-57
2022/01/25 02:05:59;;;;;;;39.60;4.35;;;-0.10;99.90;;;;;;5106660;28;20043;-57
2022/01/25 02:08:25;;;;;;;69.50;5.55;;;-0.10;99.90;;;;;;5104908;28;20035;-61
2022/01/25 02:10:51;;;;;;;50.97;4.90;;;-0.10;99.90;;;;;;5096217;28;20055;-59
2022/01/25 02:13:17;;;;;;;21.00;4.60;;;-0.10;99.90;;;;;;5102124;28;20067;-60
2022/01/25 02:15:48;;;;;;;16.85;3.83;;;0.00;99.90;;;;;;5104756;28;20035;-59
2022/01/25 02:23:44;;;;;;;13.68;3.38;;;0.10;99.90;;;;;;5104135;28;20051;-60
2022/01/25 02:26:11;;;;;;;8.88;4.13;;;0.00;99.90;;;;;;5102073;28;20495;-60
2022/01/25 02:28:40;;;;;;;45.28;5.15;;;0.10;99.90;;;;;;5104550;28;20089;-58
2022/01/25 02:31:07;;;;;;;41.28;4.25;;;0.00;99.90;;;;;;5103227;28;20141;-60
2022/01/25 02:33:34;;;;;;;62.90;5.28;;;0.00;99.90;;;;;;5101933;28;20110;-60
2022/01/25 02:36:06;;;;;;;64.10;5.30;;;-0.10;99.90;;;;;;5092101;28;20128;-57
2022/01/25 02:38:32;;;;;;;62.58;5.13;;;-0.30;99.90;;;;;;5100065;28;20627;-59
2022/01/25 02:40:59;;;;;;;68.30;5.47;;;-0.30;99.90;;;;;;5096392;28;20068;-61
2022/01/25 02:43:26;;;;;;;70.18;6.50;;;-0.30;99.90;;;;;;5103929;28;20078;-58
2022/01/25 02:48:59;;;;;;;61.50;5.82;;;-0.60;99.90;;;;;;5061435;28;21220;-61
2022/01/25 02:51:28;;;;;;;39.42;4.60;;;-0.70;99.90;;;;;;5091584;28;20904;-59
2022/01/25 02:53:54;;;;;;;52.47;5.30;;;-0.60;99.90;;;;;;5107236;28;20036;-59
2022/01/25 02:56:22;;;;;;;72.28;6.00;;;-0.60;99.90;;;;;;5098051;28;20039;-59
2022/01/25 02:58:48;;;;;;;33.95;4.75;;;-0.60;99.90;;;;;;5103880;28;20039;-58
2022/01/25 03:01:13;;;;;;;34.80;5.05;;;-0.70;99.90;;;;;;5103844;28;20077;-59
2022/01/25 03:03:39;;;;;;;56.33;5.38;;;-0.60;99.90;;;;;;5105607;28;20034;-60
2022/01/25 03:06:05;;;;;;;15.38;3.67;;;-0.60;99.90;;;;;;5105944;28;20082;-58
2022/01/25 03:08:31;;;;;;;35.22;5.43;;;-0.60;99.90;;;;;;5105692;28;20035;-59
2022/01/25 03:11:42;;;;;;;23.65;4.22;;;-0.50;99.90;;;;;;5095901;28;20044;-60
2022/01/25 03:14:10;;;;;;;43.55;5.97;;;-0.60;99.90;;;;;;5099931;28;20036;-60
2022/01/25 03:16:44;;;;;;;90.13;5.63;;;-0.50;99.90;;;;;;5104349;28;20108;-59
2022/01/25 03:21:55;;;;;;;17.80;4.00;;;-0.50;99.90;;;;;;5105360;28;20082;-60
2022/01/25 03:24:21;;;;;;;33.08;5.00;;;-0.40;99.90;;;;;;5105225;28;20039;-59
2022/01/25 03:26:46;;;;;;;18.20;4.30;;;-0.40;99.90;;;;;;5106381;28;20043;-57
2022/01/25 03:29:12;;;;;;;89.53;20.05;;;-0.30;99.90;;;;;;5105251;28;20035;-58
2022/01/25 03:31:38;;;;;;;71.57;6.80;;;-0.30;99.90;;;;;;5104298;28;20570;-59
2022/01/25 03:34:04;;;;;;;23.40;4.72;;;-0.40;99.90;;;;;;5105225;28;20122;-59
2022/01/25 03:36:30;;;;;;;30.52;4.43;;;-0.30;99.90;;;;;;5106268;28;20131;-58
2022/01/25 03:38:55;;;;;;;67.30;5.03;;;-0.40;99.90;;;;;;5105387;28;20039;-58
2022/01/25 03:41:23;;;;;;;112.47;6.32;;;-0.40;99.90;;;;;;5091773;28;20694;-58
2022/01/25 03:43:53;;;;;;;90.82;7.75;;;-0.40;99.90;;;;;;5105366;28;20040;-60
2022/01/25 03:46:27;;;;;;;116.72;7.80;;;-0.50;99.90;;;;;;5104337;28;20044;-57
2022/01/25 03:51:38;;;;;;;141.32;7.90;;;-0.60;99.90;;;;;;5104033;28;20036;-60
2022/01/25 03:54:04;;;;;;;51.95;5.97;;;-0.50;99.90;;;;;;5108662;28;20039;-59
2022/01/25 03:56:30;;;;;;;50.53;5.88;;;-0.50;99.90;;;;;;5107775;28;20036;-59
2022/01/25 03:58:56;;;;;;;10.13;4.25;;;-0.40;99.90;;;;;;5109677;28;20039;-59
2022/01/25 04:01:21;;;;;;;117.45;9.05;;;-0.30;99.90;;;;;;5108917;28;20831;-62
2022/01/25 04:04:00;;;;;;;48.22;5.97;;;-0.30;99.90;;;;;;5110375;28;20564;-59
2022/01/25 04:06:29;;;;;;;94.03;6.13;;;-0.30;99.90;;;;;;5109324;27;20047;-60
2022/01/25 04:08:55;;;;;;;32.33;5.22;;;-0.30;99.90;;;;;;5109689;28;20114;-60
2022/01/25 04:11:21;;;;;;;60.30;6.47;;;-0.30;99.90;;;;;;5102422;28;20146;-59
2022/01/25 04:13:48;;;;;;;70.05;6.65;;;-0.30;99.90;;;;;;5109215;28;20046;-58
2022/01/25 04:16:20;;;;;;;49.03;5.85;;;-0.30;99.90;;;;;;5108788;28;20139;-58
2022/01/25 04:21:40;;;;;;;96.22;7.63;;;-0.30;99.90;;;;;;5105321;28;20031;-59
2022/01/25 04:26:53;;;;;;;87.10;7.28;;;-0.20;99.90;;;;;;5101851;28;20492;-60
2022/01/25 04:29:20;;;;;;;40.40;6.25;;;-0.10;99.90;;;;;;5103483;28;20055;-57
2022/01/25 04:31:45;;;;;;;43.63;5.72;;;-0.20;99.90;;;;;;5101606;27;20063;-61
2022/01/25 04:50:12;;;;;;;14.50;7.03;;;0.00;99.90;;;;;;5080140;28;20039;-60
2022/01/25 04:52:50;;;;;;;14.10;6.30;;;-0.10;99.90;;;;;;5078503;28;20044;-60
2022/01/25 04:55:24;;;;;;;18.50;6.95;;;0.00;99.90;;;;;;5085760;28;20132;-61
2022/01/25 04:57:57;;;;;;;11.00;5.32;;;0.00;99.90;;;;;;5077344;28;20042;-62
2022/01/25 05:00:24;;;;;;;10.40;4.60;;;0.00;99.90;;;;;;5084606;28;21032;-61
2022/01/25 05:05:22;;;;;;;19.17;5.63;;;0.00;99.90;;;;;;5075721;28;20039;-60
2022/01/25 05:07:56;;;;;;;12.48;5.13;;;0.10;99.90;;;;;;5082602;28;20059;-60
2022/01/25 05:10:23;;;;;;;9.82;5.30;;;0.10;99.90;;;;;;5078663;28;20032;-60
2022/01/25 05:13:07;;;;;;;8.65;5.00;;;0.10;99.90;;;;;;5078222;28;20037;-59
2022/01/25 05:18:18;;;;;;;12.05;5.95;;;0.20;99.90;;;;;;5076248;28;20037;-60
2022/01/25 05:23:28;;;;;;;11.32;5.40;;;0.10;99.90;;;;;;5076122;28;20105;-59
2022/01/25 05:25:54;;;;;;;11.77;5.60;;;0.10;99.90;;;;;;5077925;28;20048;-60
2022/01/25 05:28:20;;;;;;;14.18;5.85;;;0.00;99.90;;;;;;5075199;28;20614;-60
2022/01/25 05:30:46;;;;;;;12.55;4.68;;;0.10;99.90;;;;;;5077466;28;20399;-60
2022/01/25 05:33:11;;;;;;;13.02;5.25;;;0.10;99.90;;;;;;5075831;28;20028;-59
2022/01/25 05:35:37;;;;;;;16.05;7.53;;;0.10;99.90;;;;;;5077041;28;20037;-60
2022/01/25 05:38:03;;;;;;;24.13;8.63;;;0.10;99.90;;;;;;5079282;28;20115;-59
2022/01/25 05:40:56;;;;;;;23.23;8.77;;;0.00;99.90;;;;;;5085114;28;20530;-58
2022/01/25 05:46:17;;;;;;;20.55;8.43;;;0.10;99.90;;;;;;5083409;28;20089;-59
2022/01/25 05:48:44;;;;;;;24.52;8.48;;;0.10;99.90;;;;;;5086166;28;20040;-60
2022/01/25 05:51:10;;;;;;;34.45;9.55;;;0.10;99.90;;;;;;5086184;28;20620;-61
2022/01/25 05:53:36;;;;;;;35.65;10.00;;;0.10;99.90;;;;;;5086503;28;20118;-59
2022/01/25 05:56:02;;;;;;;29.35;10.45;;;0.20;99.90;;;;;;5085739;28;20032;-60
2022/01/25 05:58:28;;;;;;;27.35;10.95;;;0.20;99.90;;;;;;5086568;28;20101;-61
2022/01/25 06:00:54;;;;;;;29.20;10.60;;;0.20;99.90;;;;;;5085455;28;20043;-59
2022/01/25 06:03:20;;;;;;;23.90;10.23;;;0.30;99.90;;;;;;5085494;28;20032;-59
2022/01/25 06:05:46;;;;;;;25.48;10.57;;;0.40;99.90;;;;;;5086348;28;20040;-59
2022/01/25 06:08:12;;;;;;;24.38;10.05;;;0.40;99.90;;;;;;5086895;28;20422;-57
2022/01/25 06:10:37;;;;;;;24.13;9.85;;;0.30;99.90;;;;;;5085942;28;20039;-60
2022/01/25 06:13:04;;;;;;;25.75;10.57;;;0.30;99.90;;;;;;5086676;28;20043;-61
2022/01/25 06:15:30;;;;;;;31.55;11.55;;;0.30;99.90;;;;;;5084656;28;20060;-60
2022/01/25 06:17:55;;;;;;;25.70;10.38;;;0.20;99.90;;;;;;5086771;28;20105;-61
2022/01/25 06:20:21;;;;;;;31.00;11.75;;;0.20;99.90;;;;;;5085619;28;20525;-60
2022/01/25 06:22:47;;;;;;;35.10;10.45;;;0.20;99.90;;;;;;5086422;28;20036;-61
2022/01/25 06:25:13;;;;;;;26.92;10.52;;;0.30;99.90;;;;;;5085280;28;20051;-60
2022/01/25 06:27:40;;;;;;;24.77;11.07;;;0.30;99.90;;;;;;5086013;28;20043;-58
2022/01/25 06:30:11;;;;;;;28.60;11.52;;;0.30;99.90;;;;;;5085731;28;20040;-61
2022/01/25 06:32:37;;;;;;;30.40;11.15;;;0.30;99.90;;;;;;5085784;28;20170;-60
2022/01/25 06:35:05;;;;;;;45.42;14.40;;;0.40;99.90;;;;;;5084452;28;20127;-61
2022/01/25 06:37:30;;;;;;;27.73;12.73;;;0.20;99.90;;;;;;5087701;28;20047;-60
2022/01/25 06:39:58;;;;;;;38.10;13.95;;;0.20;99.90;;;;;;5086043;28;20039;-60
2022/01/25 06:42:26;;;;;;;28.73;11.63;;;0.30;99.90;;;;;;5086273;28;20063;-61
2022/01/25 06:44:55;;;;;;;31.70;12.48;;;0.30;99.90;;;;;;5078308;28;20216;-60
2022/01/25 06:47:21;;;;;;;40.15;14.68;;;0.40;99.90;;;;;;5084528;28;20040;-60
2022/01/25 06:49:46;;;;;;;29.52;12.07;;;0.50;99.90;;;;;;5085319;28;20043;-59
2022/01/25 06:52:12;;;;;;;38.92;13.43;;;0.50;99.90;;;;;;5085153;28;20081;-60
2022/01/25 06:54:38;;;;;;;37.13;15.60;;;0.50;99.90;;;;;;5085343;28;20466;-59
2022/01/25 06:57:04;;;;;;;42.65;14.88;;;0.40;99.90;;;;;;5083650;28;20093;-59
2022/01/25 06:59:29;;;;;;;36.35;14.05;;;0.40;99.90;;;;;;5085203;28;20039;-58
2022/01/25 07:01:55;;;;;;;39.72;14.77;;;0.40;99.90;;;;;;5085523;28;20724;-60
2022/01/25 07:04:21;;;;;;;40.55;15.77;;;0.50;99.90;;;;;;5085569;28;20047;-59
2022/01/25 07:06:46;;;;;;;45.47;15.25;;;0.60;99.90;;;;;;5084656;28;20078;-60
2022/01/25 07:09:12;;;;;;;50.50;16.30;;;0.60;99.90;;;;;;5084148;28;20042;-59
2022/01/25 07:11:37;;;;;;;59.05;15.32;;;0.60;99.90;;;;;;5086133;28;20408;-59
2022/01/25 07:14:03;;;;;;;42.17;15.15;;;0.50;99.90;;;;;;5085682;28;20055;-60
2022/01/25 07:16:29;;;;;;;43.13;15.90;;;0.50;99.90;;;;;;5085001;28;20458;-60
2022/01/25 07:18:55;;;;;;;39.53;14.52;;;0.60;99.90;;;;;;5085885;28;20111;-59
2022/01/25 07:21:20;;;;;;;46.22;16.52;;;0.60;99.90;;;;;;5085654;28;20667;-58
2022/01/25 07:23:47;;;;;;;52.08;16.63;;;0.70;99.90;;;;;;5085868;28;20043;-59
2022/01/25 07:26:15;;;;;;;61.53;18.15;;;0.70;99.90;;;;;;5085431;28;20738;-58
2022/01/25 07:28:41;;;;;;;71.40;19.60;;;0.60;99.90;;;;;;5087235;28;20040;-60
2022/01/25 07:31:06;;;;;;;62.83;18.30;;;0.70;99.90;;;;;;5088621;28;20035;-59
2022/01/25 07:33:32;;;;;;;42.85;17.17;;;0.60;99.90;;;;;;5089735;28;20442;-60
2022/01/25 07:35:58;;;;;;;42.67;15.40;;;0.60;99.90;;;;;;5090581;28;20027;-61
2022/01/25 07:38:23;;;;;;;59.95;20.52;;;0.60;99.90;;;;;;5088107;28;20040;-57
2022/01/25 07:40:49;;;;;;;47.90;17.23;;;0.70;99.90;;;;;;5089362;28;20032;-58
2022/01/25 07:43:15;;;;;;;52.72;17.63;;;0.70;99.90;;;;;;5090849;28;20592;-59
2022/01/25 07:45:42;;;;;;;46.55;18.00;;;0.60;99.90;;;;;;5088404;28;20055;-59
2022/01/25 07:48:10;;;;;;;50.30;17.95;;;0.70;99.90;;;;;;5089863;28;20103;-58
2022/01/25 07:50:37;;;;;;;61.42;20.40;;;0.70;99.90;;;;;;5088892;28;20042;-59
2022/01/25 07:53:03;;;;;;;60.38;22.95;;;0.70;99.90;;;;;;5083179;28;20109;-60
2022/01/25 07:55:29;;;;;;;88.97;22.38;;;0.80;99.90;;;;;;5088888;28;20440;-60
2022/01/25 07:57:55;;;;;;;74.50;24.48;;;0.70;99.90;;;;;;5090060;28;20071;-59
2022/01/25 08:00:21;;;;;;;98.75;25.60;;;0.60;99.90;;;;;;5088550;28;20400;-60
2022/01/25 08:02:47;;;;;;;88.20;29.95;;;0.70;99.90;;;;;;5088529;28;20036;-59
2022/01/25 08:05:18;;;;;;;102.05;25.23;;;0.70;99.90;;;;;;5090148;28;20090;-59
2022/01/25 08:07:44;;;;;;;60.50;21.17;;;0.80;99.90;;;;;;5090209;28;20044;-58
2022/01/25 08:10:10;;;;;;;61.47;21.77;;;0.80;99.90;;;;;;5088664;28;20038;-59
2022/01/25 08:12:36;;;;;;;64.20;22.90;;;0.80;99.90;;;;;;5089625;28;20094;-60
2022/01/25 08:15:07;;;;;;;63.88;24.20;;;0.80;99.90;;;;;;5088791;28;20036;-59
2022/01/25 08:17:33;;;;;;;72.78;23.48;;;0.80;99.90;;;;;;5088809;28;20059;-60
2022/01/25 08:19:58;;;;;;;76.82;24.50;;;0.80;99.90;;;;;;5088547;28;20032;-57
2022/01/25 08:22:24;;;;;;;90.90;26.27;;;0.70;99.90;;;;;;5087226;28;20039;-59
2022/01/25 08:24:51;;;;;;;73.22;23.80;;;0.70;99.90;;;;;;5089598;28;20491;-59
2022/01/25 08:27:20;;;;;;;65.03;25.23;;;0.70;99.90;;;;;;5084383;28;20080;-59
2022/01/25 08:29:49;;;;;;;54.15;21.75;;;0.80;99.90;;;;;;5088855;28;20043;-57
2022/01/25 08:32:15;;;;;;;58.72;22.27;;;0.90;99.90;;;;;;5088021;28;20527;-60
2022/01/25 08:34:41;;;;;;;75.95;22.52;;;0.80;99.90;;;;;;5088487;28;20074;-59
2022/01/25 08:37:07;;;;;;;45.05;17.75;;;0.80;99.90;;;;;;5089005;28;20435;-60
2022/01/25 08:39:33;;;;;;;58.80;16.77;;;0.90;99.90;;;;;;5087301;28;20554;-59
2022/01/25 08:41:58;;;;;;;53.80;17.92;;;0.90;99.90;;;;;;5081231;28;20658;-59
2022/01/25 08:44:24;;;;;;;54.35;16.48;;;0.90;99.90;;;;;;5088441;28;20043;-60
2022/01/25 08:46:50;;;;;;;33.15;13.90;;;0.90;99.90;;;;;;5082452;28;20041;-60
2022/01/25 08:49:16;;;;;;;45.55;15.75;;;0.80;99.90;;;;;;5082575;28;20062;-59
2022/01/25 08:51:42;;;;;;;40.72;13.60;;;0.80;99.90;;;;;;5089036;28;20075;-60
2022/01/25 08:54:08;;;;;;;30.38;13.48;;;0.70;99.90;;;;;;5089206;28;20106;-59
2022/01/25 08:56:33;;;;;;;42.35;14.63;;;0.80;99.90;;;;;;5086872;28;20059;-60
2022/01/25 08:58:59;;;;;;;37.35;14.68;;;0.90;99.90;;;;;;5087107;28;20310;-60
2022/01/25 09:01:26;;;;;;;44.08;14.88;;;0.90;99.90;;;;;;5086245;28;20040;-60
2022/01/25 09:03:54;;;;;;;33.33;13.23;;;0.90;99.90;;;;;;5087792;28;20546;-58
2022/01/25 09:06:20;;;;;;;30.35;12.73;;;0.90;99.90;;;;;;5086967;28;20051;-59
2022/01/25 09:08:46;;;;;;;36.70;12.80;;;1.00;99.90;;;;;;5087459;28;20032;-60
2022/01/25 09:11:12;;;;;;;41.35;13.13;;;1.00;99.90;;;;;;5087810;28;20512;-60
2022/01/25 09:13:39;;;;;;;34.53;12.38;;;0.90;99.90;;;;;;5088177;28;20127;-60
2022/01/25 09:16:06;;;;;;;33.38;12.75;;;0.90;99.90;;;;;;5086519;28;20284;-60
2022/01/25 09:18:32;;;;;;;33.75;12.82;;;0.80;99.90;;;;;;5087536;28;20077;-59
2022/01/25 09:20:58;;;;;;;39.65;14.48;;;0.90;99.90;;;;;;5087398;28;20496;-60
2022/01/25 09:23:25;;;;;;;28.30;11.95;;;0.90;99.90;;;;;;5088632;28;20044;-59
2022/01/25 09:25:51;;;;;;;38.33;14.77;;;0.90;99.90;;;;;;5086299;28;20050;-60
2022/01/25 09:28:18;;;;;;;34.17;11.85;;;0.90;99.90;;;;;;5087830;28;20063;-60
2022/01/25 09:30:43;;;;;;;117.65;23.70;;;0.90;99.90;;;;;;5086872;28;20043;-59
2022/01/25 09:33:09;;;;;;;200.38;30.15;;;0.90;99.90;;;;;;5087152;28;20133;-59
2022/01/25 09:35:35;;;;;;;218.07;25.52;;;0.70;99.90;;;;;;5087716;28;20036;-58
2022/01/25 09:38:01;;;;;;;241.02;27.83;;;0.60;99.90;;;;;;5087307;28;20040;-57
2022/01/25 09:40:28;;;;;;;81.95;14.27;;;0.50;99.90;;;;;;5087964;28;20430;-60
2022/01/25 09:42:56;;;;;;;52.40;12.15;;;0.40;99.90;;;;;;5087154;28;20088;-59
2022/01/25 09:45:22;;;;;;;33.35;9.82;;;0.30;99.90;;;;;;5085617;28;20052;-59
2022/01/25 09:47:51;;;;;;;30.80;10.02;;;0.50;99.90;;;;;;5086452;28;20506;-60
2022/01/25 09:50:17;;;;;;;59.20;11.73;;;0.60;99.90;;;;;;5084514;28;20040;-59
2022/01/25 09:52:44;;;;;;;36.03;10.48;;;0.50;99.90;;;;;;5087992;28;20036;-59
2022/01/25 09:55:26;;;;;;;32.83;10.65;;;0.50;99.90;;;;;;5086853;28;20127;-59
2022/01/25 09:57:52;;;;;;;22.75;8.10;;;0.40;99.90;;;;;;5085441;28;20055;-60
2022/01/25 10:00:21;;;;;;;20.45;7.68;;;0.50;99.90;;;;;;5085622;28;20040;-60
2022/01/25 10:03:06;;;;;;;18.27;8.57;;;0.50;99.90;;;;;;5087032;28;20039;-58
2022/01/25 10:05:36;;;;;;;19.65;8.25;;;0.50;99.90;;;;;;5086873;28;20043;-59
2022/01/25 10:08:38;;;;;;;139.43;12.05;;;0.50;99.90;;;;;;5086968;28;20074;-59
2022/01/25 10:11:07;;;;;;;75.93;11.60;;;0.60;99.90;;;;;;5004473;28;20038;-60
2022/01/25 10:13:36;;;;;;;40.63;10.35;;;0.70;99.90;;;;;;5064532;28;20048;-60
2022/01/25 10:16:09;;;;;;;26.80;9.10;;;0.70;99.90;;;;;;5086485;28;20036;-59
2022/01/25 10:18:48;;;;;;;62.78;11.55;;;0.60;99.90;;;;;;5086778;28;20043;-59
2022/01/25 10:21:22;;;;;;;107.60;12.52;;;0.70;99.90;;;;;;5085126;28;20059;-59
2022/01/25 10:24:24;;;;;;;186.18;18.65;;;0.60;99.90;;;;;;5086480;28;20032;-60
2022/01/25 10:26:55;;;;;;;64.47;13.30;;;0.60;99.90;;;;;;5085548;28;20548;-61
2022/01/25 10:29:23;;;;;;;57.28;11.57;;;0.50;99.90;;;;;;5086402;28;20036;-61
2022/01/25 10:31:58;;;;;;;94.82;11.48;;;0.40;99.90;;;;;;5084465;28;20074;-59
2022/01/25 10:34:30;;;;;;;37.38;10.35;;;0.30;99.90;;;;;;5081885;28;20384;-59
2022/01/25 10:36:57;;;;;;;27.33;10.32;;;0.40;99.90;;;;;;5086420;28;20039;-61
2022/01/25 10:39:28;;;;;;;25.73;9.48;;;0.50;99.90;;;;;;5082284;28;20040;-59
2022/01/25 10:42:08;;;;;;;30.92;9.88;;;0.50;99.90;;;;;;5086340;28;20052;-60
2022/01/25 10:44:52;;;;;;;26.13;9.50;;;0.50;99.90;;;;;;5085929;28;20047;-60
2022/01/25 10:47:55;;;;;;;31.05;9.80;;;0.60;99.90;;;;;;5081755;28;20044;-60
2022/01/25 10:50:37;;;;;;;33.20;9.48;;;0.60;99.90;;;;;;5017149;28;20116;-60
2022/01/25 10:53:04;;;;;;;31.48;10.02;;;0.60;99.90;;;;;;5075143;28;20131;-61
2022/01/25 10:55:48;;;;;;;23.88;8.77;;;0.70;99.90;;;;;;5084183;28;20050;-60
2022/01/25 10:58:14;;;;;;;22.55;9.52;;;0.90;99.90;;;;;;5081453;28;20065;-61
2022/01/25 11:00:43;;;;;;;21.20;8.85;;;1.10;99.90;;;;;;5085336;28;20052;-60
2022/01/25 11:03:09;;;;;;;39.80;10.32;;;1.10;99.90;;;;;;5085505;28;20072;-59
2022/01/25 11:05:37;;;;;;;41.47;9.35;;;1.20;99.90;;;;;;5085524;28;20063;-60
2022/01/25 11:08:15;;;;;;;46.92;10.38;;;1.10;99.90;;;;;;5079241;28;20044;-59
2022/01/25 11:10:49;;;;;;;51.60;11.77;;;1.10;99.90;;;;;;5084992;28;20043;-58
2022/01/25 11:13:33;;;;;;;115.15;16.73;;;1.20;99.90;;;;;;5085999;28;20039;-60
2022/01/25 11:16:02;;;;;;;42.10;11.02;;;1.20;99.90;;;;;;5085637;28;20516;-61
2022/01/25 11:18:31;;;;;;;31.73;10.82;;;1.20;99.90;;;;;;5085722;28;20702;-61
2022/01/25 11:21:02;;;;;;;48.97;11.18;;;1.10;99.90;;;;;;5085821;28;20043;-60
2022/01/25 11:23:31;;;;;;;46.70;11.57;;;1.20;99.90;;;;;;5086905;28;20047;-60
2022/01/25 11:26:00;;;;;;;57.78;11.80;;;1.20;99.90;;;;;;5085945;28;20129;-60
2022/01/25 11:28:26;;;;;;;56.35;10.75;;;1.00;99.90;;;;;;5084838;28;20149;-54
2022/01/25 11:30:53;;;;;;;76.00;12.85;;;1.00;99.90;;;;;;5084369;28;20040;-61
2022/01/25 11:33:20;;;;;;;142.27;13.30;;;1.00;99.90;;;;;;5086310;28;20044;-54
2022/01/25 11:35:49;;;;;;;168.57;14.02;;;1.10;99.90;;;;;;5085452;28;20047;-60
2022/01/25 11:38:15;;;;;;;89.38;11.48;;;1.10;99.90;;;;;;5085287;28;20111;-61
2022/01/25 11:40:46;;;;;;;89.05;13.38;;;1.00;99.90;;;;;;5085880;28;20131;-58
2022/01/25 11:43:15;;;;;;;48.53;9.60;;;0.90;99.90;;;;;;5086372;28;20032;-61
2022/01/25 11:45:48;;;;;;;39.63;10.60;;;0.60;99.90;;;;;;5084829;28;20043;-61
2022/01/25 11:48:18;;;;;;;37.35;10.77;;;0.70;99.90;;;;;;5084472;28;20070;-63
2022/01/25 11:50:44;;;;;;;66.55;10.73;;;0.80;99.90;;;;;;5084666;28;20311;-59
2022/01/25 11:53:15;;;;;;;29.83;9.60;;;0.80;99.90;;;;;;5085708;28;20578;-60
2022/01/25 11:55:52;;;;;;;50.40;11.63;;;0.80;99.90;;;;;;5084671;28;20078;-59
2022/01/25 11:58:23;;;;;;;25.90;10.13;;;0.80;99.90;;;;;;5085231;28;20111;-63
2022/01/25 12:00:53;;;;;;;18.63;7.68;;;0.90;99.90;;;;;;5084734;28;20496;-62
2022/01/25 12:03:45;;;;;;;23.08;9.27;;;0.90;99.90;;;;;;5085480;28;20032;-62
2022/01/25 12:06:24;;;;;;;19.85;7.95;;;1.00;99.90;;;;;;5083662;28;20055;-61
2022/01/25 12:09:06;;;;;;;19.33;8.32;;;1.20;99.90;;;;;;5084260;28;20555;-61
2022/01/25 12:11:46;;;;;;;61.72;10.85;;;1.10;99.90;;;;;;5082265;28;20036;-58
2022/01/25 12:14:33;;;;;;;41.08;10.15;;;1.00;99.90;;;;;;5086518;28;20044;-60
2022/01/25 12:17:02;;;;;;;50.08;11.25;;;0.90;99.90;;;;;;5098731;27;20407;-58
2022/01/25 12:19:30;;;;;;;42.60;10.80;;;0.90;99.90;;;;;;5108203;27;20032;-61
2022/01/25 12:22:05;;;;;;;38.75;13.52;;;0.80;99.90;;;;;;5114485;27;20038;-59
2022/01/25 12:24:50;;;;;;;39.67;12.45;;;0.80;99.90;;;;;;5112787;27;20047;-57
2022/01/25 12:27:33;;;;;;;35.58;9.65;;;0.90;99.90;;;;;;5106758;27;20039;-59
2022/01/25 12:30:08;;;;;;;33.88;9.50;;;0.80;99.90;;;;;;5103775;27;20582;-59
2022/01/25 12:32:47;;;;;;;28.42;10.57;;;0.70;99.90;;;;;;5118770;27;20043;-59
2022/01/25 12:35:30;;;;;;;30.00;10.13;;;0.70;99.90;;;;;;5110262;27;20035;-58
2022/01/25 12:37:58;;;;;;;24.35;8.70;;;0.70;99.90;;;;;;5115388;27;20092;-60
2022/01/25 12:40:26;;;;;;;31.70;11.90;;;0.80;99.90;;;;;;5113119;27;20050;-59
2022/01/25 12:43:03;;;;;;;27.98;9.27;;;0.90;99.90;;;;;;5100453;27;20609;-60
2022/01/25 12:45:40;;;;;;;23.83;9.40;;;0.80;99.90;;;;;;5107981;27;20088;-56
2022/01/25 12:48:09;;;;;;;29.13;9.63;;;0.80;99.90;;;;;;5109752;27;20039;-60
2022/01/25 12:50:38;;;;;;;30.67;9.77;;;0.70;99.90;;;;;;5111031;27;20063;-61
2022/01/25 12:53:06;;;;;;;24.40;9.85;;;0.70;99.90;;;;;;5112868;27;20111;-60
2022/01/25 12:55:35;;;;;;;25.65;9.13;;;0.80;99.90;;;;;;5113530;27;20044;-59
2022/01/25 12:58:02;;;;;;;20.77;7.18;;;0.90;99.90;;;;;;5116340;27;20040;-59
2022/01/25 13:00:35;;;;;;;26.23;9.25;;;0.80;99.90;;;;;;5104100;27;20047;-61
2022/01/25 13:03:18;;;;;;;20.77;8.77;;;0.80;99.90;;;;;;5116152;27;20039;-61
2022/01/25 13:05:52;;;;;;;18.92;7.50;;;0.80;99.90;;;;;;5111772;27;20043;-59
2022/01/25 13:08:25;;;;;;;20.75;8.35;;;0.70;99.90;;;;;;5118024;27;20035;-60
2022/01/25 13:10:54;;;;;;;19.90;7.40;;;0.70;99.90;;;;;;5107704;27;20161;-57
2022/01/25 13:13:28;;;;;;;21.65;8.15;;;0.80;99.90;;;;;;5116698;27;20035;-60
2022/01/25 13:15:57;;;;;;;26.42;9.63;;;0.80;99.90;;;;;;5110978;27;20046;-60
2022/01/25 13:18:26;;;;;;;27.75;9.43;;;0.80;99.90;;;;;;5116095;27;20116;-60
2022/01/25 13:21:04;;;;;;;44.28;19.67;;;0.90;99.90;;;;;;5110522;27;20132;-58
2022/01/25 13:23:29;;;;;;;34.22;13.75;;;1.00;99.90;;;;;;5118144;27;20046;-59
2022/01/25 13:26:06;;;;;;;24.40;10.30;;;1.00;99.90;;;;;;5109334;27;20027;-59
2022/01/25 13:31:12;;;;;;;29.52;10.02;;;1.10;99.90;;;;;;5110324;27;20036;-61
2022/01/25 13:33:38;;;;;;;22.92;9.02;;;0.90;99.90;;;;;;5116978;27;20069;-57
2022/01/25 13:36:07;;;;;;;23.85;9.68;;;1.00;99.90;;;;;;5109611;27;20039;-60
2022/01/25 13:38:37;;;;;;;20.58;8.00;;;1.00;99.90;;;;;;5116288;27;20146;-60
2022/01/25 13:46:12;;;;;;;48.85;20.92;;;1.20;99.90;;;;;;5109066;27;20055;-59
2022/01/25 13:48:39;;;;;;;23.10;9.45;;;1.10;99.90;;;;;;5116103;27;20122;-60
2022/01/25 13:51:08;;;;;;;22.17;9.20;;;1.10;99.90;;;;;;5110777;27;20509;-60
2022/01/25 13:53:35;;;;;;;22.52;9.73;;;1.10;99.90;;;;;;5116623;27;20047;-60
2022/01/25 13:56:03;;;;;;;20.48;9.25;;;1.20;99.90;;;;;;5110514;27;20514;-60
2022/01/25 13:58:32;;;;;;;24.05;8.35;;;1.30;99.90;;;;;;5112975;27;20039;-59
2022/01/25 14:01:01;;;;;;;18.75;8.07;;;1.20;99.90;;;;;;5109997;27;20038;-61
2022/01/25 14:03:30;;;;;;;18.48;7.32;;;1.20;99.90;;;;;;5115297;27;20855;-59
2022/01/25 14:05:56;;;;;;;23.05;8.32;;;1.10;99.90;;;;;;5106342;27;20047;-60
2022/01/25 14:08:40;;;;;;;29.27;12.15;;;1.10;99.90;;;;;;5114859;27;20043;-57
2022/01/25 14:11:16;;;;;;;24.65;10.35;;;1.00;99.90;;;;;;5109182;27;20128;-59
2022/01/25 14:24:55;;;;;;;22.88;8.70;;;0.70;99.90;;;;;;5077779;27;20047;-59
2022/01/25 14:27:25;;;;;;;18.53;7.83;;;0.80;99.90;;;;;;5108645;27;20039;-61
2022/01/25 14:29:52;;;;;;;19.05;7.28;;;0.80;99.90;;;;;;5101126;27;20047;-60
2022/01/25 14:32:35;;;;;;;19.58;7.93;;;0.80;99.90;;;;;;5116143;27;20042;-59
2022/01/25 14:35:12;;;;;;;21.27;7.80;;;0.80;99.90;;;;;;5112080;27;20042;-59
2022/01/25 14:37:48;;;;;;;19.85;7.93;;;0.80;99.90;;;;;;5111592;27;20039;-61
2022/01/25 14:40:16;;;;;;;18.95;7.53;;;0.90;99.90;;;;;;5111147;27;20100;-61
2022/01/25 14:42:45;;;;;;;21.88;8.80;;;1.00;99.90;;;;;;5117337;27;20144;-60
2022/01/25 14:45:15;;;;;;;17.25;7.28;;;1.10;99.90;;;;;;5107709;27;20039;-60
2022/01/25 14:47:45;;;;;;;15.23;6.88;;;1.10;99.90;;;;;;5116903;27;20070;-61